Time;durP1;ratioP1;P1;durP2;ratioP2;P2;SDS_P1;SDS_P2;PMS_P1;PMS_P2;Temp;Humidity;BMP_temperature;BMP_pressure;BME280_temperature;BME280_humidity;BME280_pressure;Samples;Min_cycle;Max_cycle;Signal;HPM_P1;HPM_P2
2022/05/14 00:01:58;;;;;;;19.17;4.53;;;13.10;99.90;;;;;;5044410;28;20424;-80
2022/05/14 00:04:24;;;;;;;16.02;4.78;;;13.10;99.90;;;;;;5045006;28;20048;-81
2022/05/14 00:06:51;;;;;;;14.45;4.60;;;13.10;99.90;;;;;;5046285;28;20045;-80
2022/05/14 00:09:16;;;;;;;15.68;4.82;;;13.10;99.90;;;;;;5062587;28;20036;-80
2022/05/14 00:14:26;;;;;;;14.57;4.55;;;13.10;99.90;;;;;;5046722;28;20077;-79
2022/05/14 00:16:52;;;;;;;15.95;5.28;;;13.10;99.90;;;;;;5030434;28;20398;-79
2022/05/14 00:19:18;;;;;;;13.43;4.38;;;13.00;99.90;;;;;;5046319;28;20040;-81
2022/05/14 00:21:43;;;;;;;16.55;4.50;;;13.00;99.90;;;;;;5046144;28;20040;-80
2022/05/14 00:24:09;;;;;;;19.73;4.85;;;13.00;99.90;;;;;;5044457;28;20040;-79
2022/05/14 00:26:37;;;;;;;16.27;4.90;;;12.90;99.90;;;;;;5046095;28;20045;-80
2022/05/14 00:29:04;;;;;;;17.63;4.90;;;12.80;99.90;;;;;;5044599;28;20029;-79
2022/05/14 00:31:30;;;;;;;17.13;5.25;;;12.80;99.90;;;;;;5061792;28;20037;-80
2022/05/14 00:33:56;;;;;;;15.38;4.75;;;12.80;99.90;;;;;;5045277;28;20037;-79
2022/05/14 00:36:22;;;;;;;17.60;4.78;;;12.80;99.90;;;;;;5028671;28;20529;-80
2022/05/14 00:38:48;;;;;;;18.02;5.65;;;12.80;99.90;;;;;;5046131;28;20090;-80
2022/05/14 00:41:15;;;;;;;17.25;4.82;;;12.80;99.90;;;;;;5043835;28;20083;-81
2022/05/14 00:43:57;;;;;;;22.33;5.55;;;12.70;99.90;;;;;;5046428;28;20048;-80
2022/05/14 00:46:28;;;;;;;18.30;4.95;;;12.70;99.90;;;;;;5026980;28;20086;-80
2022/05/14 00:48:57;;;;;;;18.00;5.00;;;12.70;99.90;;;;;;5046530;28;20036;-80
2022/05/14 00:51:28;;;;;;;18.50;5.00;;;12.70;99.90;;;;;;5060459;28;20040;-79
2022/05/14 00:53:58;;;;;;;15.43;5.28;;;12.70;99.90;;;;;;5045131;28;20040;-79
2022/05/14 00:56:29;;;;;;;16.90;5.55;;;12.70;99.90;;;;;;5045432;28;20124;-81
2022/05/14 00:59:09;;;;;;;19.48;5.45;;;12.70;99.90;;;;;;5046424;28;20039;-79
2022/05/14 01:01:36;;;;;;;14.70;5.53;;;12.70;99.90;;;;;;5043431;28;20047;-81
2022/05/14 01:04:03;;;;;;;19.55;5.38;;;12.70;99.90;;;;;;5044237;28;20048;-79
2022/05/14 01:06:29;;;;;;;20.38;5.47;;;12.70;99.90;;;;;;5044684;28;20033;-80
2022/05/14 01:08:56;;;;;;;17.50;5.80;;;12.70;99.90;;;;;;5045836;28;20101;-81
2022/05/14 01:11:22;;;;;;;17.30;5.75;;;12.70;99.90;;;;;;5041818;28;20041;-80
2022/05/14 01:13:47;;;;;;;19.52;5.75;;;12.70;99.90;;;;;;5045209;28;20383;-80
2022/05/14 01:16:13;;;;;;;23.08;6.10;;;12.70;99.90;;;;;;5044558;28;20037;-79
2022/05/14 01:18:38;;;;;;;21.42;6.28;;;12.70;99.90;;;;;;5029329;28;20041;-81
2022/05/14 01:21:25;;;;;;;19.63;5.93;;;12.70;99.90;;;;;;5060488;28;20550;-79
2022/05/14 01:26:46;;;;;;;22.73;5.80;;;12.60;99.90;;;;;;5043940;28;20057;-80
2022/05/14 01:29:19;;;;;;;23.27;6.05;;;12.60;99.90;;;;;;5042621;28;20046;-79
2022/05/14 01:31:46;;;;;;;22.05;6.80;;;12.60;99.90;;;;;;5045133;28;20120;-79
2022/05/14 01:34:16;;;;;;;20.95;6.28;;;12.60;99.90;;;;;;5043411;28;20568;-81
2022/05/14 01:36:43;;;;;;;21.60;5.65;;;12.50;99.90;;;;;;5045461;28;20062;-80
2022/05/14 01:39:09;;;;;;;19.58;6.18;;;12.50;99.90;;;;;;5046094;28;20116;-80
2022/05/14 01:41:35;;;;;;;22.85;6.43;;;12.50;99.90;;;;;;5044053;28;20167;-80
2022/05/14 01:44:01;;;;;;;22.08;5.72;;;12.50;99.90;;;;;;5042508;28;20037;-79
2022/05/14 01:46:27;;;;;;;19.50;6.20;;;12.50;99.90;;;;;;5044693;28;20039;-79
2022/05/14 01:48:52;;;;;;;24.27;6.68;;;12.50;99.90;;;;;;5045924;28;20088;-79
2022/05/14 01:51:19;;;;;;;22.17;6.60;;;12.40;99.90;;;;;;5044497;28;20036;-80
2022/05/14 01:53:45;;;;;;;21.80;5.80;;;12.40;99.90;;;;;;5058018;28;20041;-82
2022/05/14 01:56:11;;;;;;;24.77;7.07;;;12.40;99.90;;;;;;5041835;28;20044;-81
2022/05/14 01:58:37;;;;;;;21.35;6.72;;;12.40;99.90;;;;;;5044386;28;20033;-80
2022/05/14 02:01:33;;;;;;;21.95;6.90;;;12.30;99.90;;;;;;5046153;28;20094;-80
2022/05/14 02:04:03;;;;;;;21.90;6.75;;;12.30;99.90;;;;;;5042486;28;20415;-80
2022/05/14 02:06:30;;;;;;;21.30;6.63;;;12.20;99.90;;;;;;5044840;28;20045;-80
2022/05/14 02:08:56;;;;;;;25.05;6.53;;;12.20;99.90;;;;;;5044256;28;20044;-80
2022/05/14 02:11:22;;;;;;;26.17;6.38;;;12.20;99.90;;;;;;5044775;28;20036;-80
2022/05/14 02:13:49;;;;;;;21.38;6.00;;;12.20;99.90;;;;;;5044292;28;20387;-80
2022/05/14 02:16:15;;;;;;;21.40;6.90;;;12.10;99.90;;;;;;5044553;28;20087;-79
2022/05/14 02:18:41;;;;;;;23.13;6.57;;;12.10;99.90;;;;;;5043687;28;20570;-83
2022/05/14 02:21:07;;;;;;;23.80;6.57;;;12.00;99.90;;;;;;5028654;28;20135;-80
2022/05/14 02:23:36;;;;;;;23.67;6.63;;;12.00;99.90;;;;;;5043888;28;20132;-79
2022/05/14 02:26:04;;;;;;;19.83;6.55;;;11.90;99.90;;;;;;5043560;28;20040;-80
2022/05/14 02:28:29;;;;;;;25.27;6.45;;;11.90;99.90;;;;;;5043529;28;20033;-80
2022/05/14 02:30:55;;;;;;;27.42;7.20;;;11.90;99.90;;;;;;5060471;28;20040;-80
2022/05/14 02:33:20;;;;;;;30.00;6.45;;;11.90;99.90;;;;;;5043274;28;20132;-78
2022/05/14 02:35:46;;;;;;;19.77;6.47;;;11.80;99.90;;;;;;5041446;28;20037;-79
2022/05/14 02:38:12;;;;;;;26.95;6.85;;;11.80;99.90;;;;;;5043836;28;20605;-80
2022/05/14 02:40:38;;;;;;;25.52;6.90;;;11.70;99.90;;;;;;5042454;28;20514;-79
2022/05/14 02:43:04;;;;;;;26.60;6.95;;;11.70;99.90;;;;;;5044353;28;20068;-80
2022/05/14 02:45:29;;;;;;;31.10;7.10;;;11.70;99.90;;;;;;5043874;28;20037;-80
2022/05/14 02:47:55;;;;;;;23.27;6.93;;;11.70;99.90;;;;;;5040672;28;20037;-80
2022/05/14 02:50:21;;;;;;;31.73;7.35;;;11.70;99.90;;;;;;5045611;28;20033;-81
2022/05/14 02:52:46;;;;;;;24.98;7.88;;;11.60;99.90;;;;;;5043111;28;20044;-81
2022/05/14 02:55:12;;;;;;;20.88;6.43;;;11.60;99.90;;;;;;5029101;28;20033;-79
2022/05/14 02:57:38;;;;;;;30.95;7.15;;;11.60;99.90;;;;;;5044263;28;20072;-79
2022/05/14 03:00:07;;;;;;;28.33;7.53;;;11.60;99.90;;;;;;5045307;28;20037;-80
2022/05/14 03:02:32;;;;;;;27.30;8.38;;;11.50;99.90;;;;;;5043701;28;20048;-80
2022/05/14 03:04:58;;;;;;;23.88;7.30;;;11.50;99.90;;;;;;5046152;28;20320;-79
2022/05/14 03:07:24;;;;;;;23.92;7.55;;;11.50;99.90;;;;;;5031367;28;20036;-79
2022/05/14 03:09:49;;;;;;;31.60;8.10;;;11.40;99.90;;;;;;5047251;28;20045;-79
2022/05/14 03:12:16;;;;;;;25.42;7.63;;;11.40;99.90;;;;;;5046027;28;20029;-79
2022/05/14 03:14:41;;;;;;;29.35;8.55;;;11.40;99.90;;;;;;5045106;28;20442;-79
2022/05/14 03:17:08;;;;;;;27.13;7.50;;;11.30;99.90;;;;;;5047298;28;20097;-79
2022/05/14 03:19:34;;;;;;;26.75;7.38;;;11.30;99.90;;;;;;5047210;28;20048;-78
2022/05/14 03:22:00;;;;;;;31.70;9.23;;;11.30;99.90;;;;;;5046933;28;20041;-79
2022/05/14 03:24:26;;;;;;;26.60;7.40;;;11.30;99.90;;;;;;5046428;28;20079;-79
2022/05/14 03:26:52;;;;;;;28.10;7.30;;;11.30;99.90;;;;;;5047292;28;20032;-78
2022/05/14 03:29:18;;;;;;;27.42;7.45;;;11.30;99.90;;;;;;5031414;28;20075;-78
2022/05/14 03:31:43;;;;;;;25.42;7.50;;;11.20;99.90;;;;;;5047647;28;20124;-78
2022/05/14 03:34:11;;;;;;;36.80;7.88;;;11.20;99.90;;;;;;5046500;28;20041;-78
2022/05/14 03:36:38;;;;;;;29.05;7.40;;;11.20;99.90;;;;;;5046525;28;20040;-78
2022/05/14 03:39:04;;;;;;;25.23;7.78;;;11.20;99.90;;;;;;5046695;28;20073;-78
2022/05/14 03:41:30;;;;;;;29.83;7.68;;;11.20;99.90;;;;;;5047078;28;20522;-78
2022/05/14 03:43:56;;;;;;;30.60;9.02;;;11.20;99.90;;;;;;5045885;28;20076;-78
2022/05/14 03:46:22;;;;;;;29.88;8.88;;;11.30;99.90;;;;;;5046675;28;20132;-79
2022/05/14 03:48:48;;;;;;;26.48;8.70;;;11.30;99.90;;;;;;5047026;28;20426;-79
2022/05/14 03:51:14;;;;;;;28.40;8.38;;;11.30;99.90;;;;;;5029922;28;20029;-78
2022/05/14 03:53:40;;;;;;;32.30;8.60;;;11.30;99.90;;;;;;5047692;28;20053;-79
2022/05/14 03:56:06;;;;;;;30.63;8.85;;;11.30;99.90;;;;;;5046799;28;20111;-78
2022/05/14 03:58:32;;;;;;;29.15;8.82;;;11.40;99.90;;;;;;5047024;28;20095;-79
2022/05/14 04:00:58;;;;;;;36.42;8.82;;;11.40;99.90;;;;;;5046291;28;20037;-78
2022/05/14 04:03:25;;;;;;;33.88;9.38;;;11.40;99.90;;;;;;5046644;28;20503;-78
2022/05/14 04:05:50;;;;;;;37.13;8.55;;;11.40;99.90;;;;;;5046613;28;20115;-78
2022/05/14 04:08:17;;;;;;;30.33;8.38;;;11.40;99.90;;;;;;5045868;28;20071;-80
2022/05/14 04:10:43;;;;;;;35.58;9.07;;;11.40;99.90;;;;;;5045550;28;20379;-79
2022/05/14 04:13:09;;;;;;;30.33;8.60;;;11.40;99.90;;;;;;5047743;28;20521;-79
2022/05/14 04:15:35;;;;;;;31.92;8.93;;;11.30;99.90;;;;;;5045085;28;20045;-78
2022/05/14 04:18:01;;;;;;;40.08;8.88;;;11.40;99.90;;;;;;5046776;28;20604;-79
2022/05/14 04:20:26;;;;;;;30.48;8.68;;;11.40;99.90;;;;;;5059954;28;20128;-79
2022/05/14 04:22:52;;;;;;;27.88;7.85;;;11.40;99.90;;;;;;5030044;28;20043;-79
2022/05/14 04:25:18;;;;;;;26.52;8.25;;;11.40;99.90;;;;;;5045118;28;20116;-79
2022/05/14 04:27:45;;;;;;;35.83;8.85;;;11.40;99.90;;;;;;5045284;28;20043;-78
2022/05/14 04:30:12;;;;;;;28.92;8.07;;;11.40;99.90;;;;;;5044511;28;20041;-79
2022/05/14 04:32:37;;;;;;;35.53;8.70;;;11.50;99.90;;;;;;5061008;28;20036;-79
2022/05/14 04:35:03;;;;;;;34.33;8.98;;;11.50;99.90;;;;;;5045893;28;20036;-79
2022/05/14 04:37:29;;;;;;;32.90;8.50;;;11.50;99.90;;;;;;5046368;28;20067;-79
2022/05/14 04:39:54;;;;;;;24.40;8.60;;;11.50;99.90;;;;;;5044328;28;20036;-78
2022/05/14 04:42:20;;;;;;;31.48;8.93;;;11.50;99.90;;;;;;5062322;28;20520;-78
2022/05/14 04:44:45;;;;;;;28.05;8.57;;;11.60;99.90;;;;;;5043583;28;20033;-79
2022/05/14 04:47:12;;;;;;;35.10;9.68;;;11.70;99.90;;;;;;5045314;28;20033;-78
2022/05/14 04:49:43;;;;;;;28.95;8.55;;;11.70;99.90;;;;;;5046134;28;20037;-79
2022/05/14 04:52:09;;;;;;;26.15;7.80;;;11.80;99.90;;;;;;5044547;28;20037;-79
2022/05/14 04:54:35;;;;;;;27.80;8.57;;;11.90;99.90;;;;;;5046203;28;20071;-79
2022/05/14 04:57:01;;;;;;;30.33;8.10;;;11.90;99.90;;;;;;5045564;28;20048;-79
2022/05/14 04:59:27;;;;;;;29.55;7.95;;;12.00;99.90;;;;;;5047099;28;20036;-78
2022/05/14 05:04:40;;;;;;;32.70;7.82;;;12.10;99.90;;;;;;5044324;28;20037;-79
2022/05/14 05:07:06;;;;;;;30.67;8.18;;;12.20;99.90;;;;;;5044698;28;20044;-79
2022/05/14 05:09:32;;;;;;;28.52;7.18;;;12.20;99.90;;;;;;5045953;28;20032;-79
2022/05/14 05:11:58;;;;;;;31.17;8.10;;;12.30;99.90;;;;;;5043846;28;20103;-79
2022/05/14 05:14:24;;;;;;;27.25;8.02;;;12.40;99.90;;;;;;5044519;28;20503;-79
2022/05/14 05:16:50;;;;;;;23.73;7.70;;;12.50;99.90;;;;;;5045200;28;20051;-78
2022/05/14 05:19:16;;;;;;;28.15;8.40;;;12.50;99.90;;;;;;5046177;28;20041;-79
2022/05/14 05:21:42;;;;;;;22.15;7.82;;;12.50;99.90;;;;;;5044320;28;20041;-79
2022/05/14 05:24:09;;;;;;;25.58;7.55;;;12.50;99.90;;;;;;5043864;28;20051;-79
2022/05/14 05:26:35;;;;;;;32.83;7.82;;;12.40;99.90;;;;;;5043088;28;20041;-79
2022/05/14 05:29:01;;;;;;;26.42;7.75;;;12.40;99.90;;;;;;5028377;28;20079;-78
2022/05/14 05:31:27;;;;;;;26.27;7.82;;;12.40;99.90;;;;;;5064629;28;20065;-79
2022/05/14 05:33:52;;;;;;;30.98;8.13;;;12.50;99.90;;;;;;5049267;28;20043;-79
2022/05/14 05:36:18;;;;;;;24.88;7.20;;;12.60;99.90;;;;;;5049377;28;20045;-79
2022/05/14 05:38:43;;;;;;;32.55;8.07;;;12.60;99.90;;;;;;5050360;28;20128;-79
2022/05/14 05:41:09;;;;;;;30.48;7.82;;;12.70;99.90;;;;;;5040636;28;20069;-80
2022/05/14 05:43:35;;;;;;;30.92;7.18;;;12.70;99.90;;;;;;5013675;28;20044;-79
2022/05/14 05:46:00;;;;;;;25.40;7.95;;;12.80;99.90;;;;;;5029878;28;20045;-79
2022/05/14 05:48:26;;;;;;;28.02;7.80;;;12.80;99.90;;;;;;5046437;28;20055;-79
2022/05/14 05:50:53;;;;;;;27.08;8.00;;;12.90;99.90;;;;;;5032606;28;20048;-79
2022/05/14 05:53:20;;;;;;;24.92;7.70;;;13.00;99.90;;;;;;5050266;28;20454;-79
2022/05/14 05:58:31;;;;;;;29.27;7.00;;;13.20;99.90;;;;;;5048171;28;20045;-78
2022/05/14 06:00:57;;;;;;;32.95;8.57;;;13.40;99.90;;;;;;5044911;28;20117;-78
2022/05/14 06:03:23;;;;;;;28.52;7.07;;;13.50;99.90;;;;;;5043768;28;20498;-78
2022/05/14 06:05:49;;;;;;;30.38;7.00;;;13.50;99.90;;;;;;5028271;28;20392;-78
2022/05/14 06:08:19;;;;;;;22.65;6.38;;;13.50;99.90;;;;;;5047918;28;20026;-78
2022/05/14 06:10:44;;;;;;;27.35;6.65;;;13.40;99.90;;;;;;5045195;28;20136;-78
2022/05/14 06:13:11;;;;;;;26.13;5.82;;;13.40;99.90;;;;;;5049632;28;20589;-78
2022/05/14 06:15:39;;;;;;;30.58;7.25;;;13.50;99.90;;;;;;5048234;28;20045;-78
2022/05/14 06:18:05;;;;;;;33.97;7.22;;;13.50;99.90;;;;;;5033111;28;20044;-78
2022/05/14 06:20:31;;;;;;;24.42;6.55;;;13.50;99.90;;;;;;5049528;28;20120;-78
2022/05/14 06:22:57;;;;;;;27.55;6.70;;;13.60;99.90;;;;;;5047598;28;20041;-78
2022/05/14 06:25:22;;;;;;;23.20;5.93;;;13.70;99.90;;;;;;5026950;28;20043;-77
2022/05/14 06:27:48;;;;;;;28.67;5.68;;;13.90;99.90;;;;;;5041598;28;20040;-78
2022/05/14 06:30:15;;;;;;;22.13;5.65;;;13.90;99.90;;;;;;5028416;28;20044;-78
2022/05/14 06:32:40;;;;;;;27.27;6.07;;;13.80;99.90;;;;;;5044389;28;20036;-78
2022/05/14 06:35:08;;;;;;;25.67;5.82;;;13.80;99.90;;;;;;5044617;28;20041;-79
2022/05/14 06:37:34;;;;;;;28.77;5.70;;;13.90;99.90;;;;;;5044936;28;20037;-78
2022/05/14 06:40:00;;;;;;;20.90;5.25;;;13.90;99.90;;;;;;5047502;28;20572;-79
2022/05/14 06:42:26;;;;;;;23.73;6.28;;;14.10;99.90;;;;;;5046655;28;20048;-78
2022/05/14 06:44:53;;;;;;;20.98;5.97;;;14.30;99.90;;;;;;5046905;28;20044;-79
2022/05/14 06:47:19;;;;;;;20.88;5.30;;;14.40;99.90;;;;;;5047325;28;20072;-79
2022/05/14 06:49:45;;;;;;;21.13;5.00;;;14.50;99.90;;;;;;5048451;28;20399;-78
2022/05/14 06:52:13;;;;;;;27.00;5.22;;;14.60;99.90;;;;;;5047511;28;20041;-78
2022/05/14 06:54:40;;;;;;;21.40;5.18;;;14.70;99.90;;;;;;5047007;28;20044;-78
2022/05/14 06:57:06;;;;;;;22.67;5.00;;;14.90;99.90;;;;;;5047127;28;20064;-78
2022/05/14 06:59:33;;;;;;;21.25;5.47;;;14.90;99.90;;;;;;5050158;28;20068;-78
2022/05/14 07:01:59;;;;;;;19.33;4.63;;;14.90;99.90;;;;;;5048762;28;20124;-78
2022/05/14 07:07:09;;;;;;;;;;;15.20;99.90;;;;;;5047691;28;20048;-78
2022/05/14 07:09:34;;;;;;;25.50;5.45;;;15.10;99.90;;;;;;5047410;28;19917;-78
2022/05/14 07:12:09;;;;;;;24.08;5.32;;;15.00;99.90;;;;;;5063218;28;20043;-78
2022/05/14 07:14:35;;;;;;;21.13;4.60;;;15.10;99.90;;;;;;5047617;28;20066;-78
2022/05/14 07:17:02;;;;;;;23.42;4.88;;;15.20;99.90;;;;;;5045839;28;20043;-79
2022/05/14 07:19:27;;;;;;;24.08;4.97;;;15.40;99.90;;;;;;5046150;28;20123;-78
2022/05/14 07:21:54;;;;;;;24.02;5.05;;;15.40;99.90;;;;;;5045512;28;20119;-78
2022/05/14 07:24:22;;;;;;;20.27;5.20;;;15.60;99.90;;;;;;5047752;28;20383;-78
2022/05/14 07:26:50;;;;;;;20.63;4.47;;;15.70;99.90;;;;;;5046478;28;20040;-78
2022/05/14 07:29:19;;;;;;;18.05;4.28;;;15.90;99.90;;;;;;5045261;28;20564;-79
2022/05/14 07:31:45;;;;;;;21.70;5.10;;;16.00;99.90;;;;;;5047011;28;20384;-78
2022/05/14 07:34:12;;;;;;;21.40;4.97;;;16.00;99.90;;;;;;5046477;28;20037;-79
2022/05/14 07:36:56;;;;;;;21.83;4.88;;;16.00;99.90;;;;;;5030379;28;20049;-79
2022/05/14 07:39:26;;;;;;;22.23;4.80;;;16.00;99.90;;;;;;5048899;28;20169;-79
2022/05/14 07:41:54;;;;;;;19.30;4.70;;;16.10;99.90;;;;;;5046377;28;20056;-78
2022/05/14 07:44:25;;;;;;;22.80;4.75;;;16.20;99.90;;;;;;5047497;28;20036;-79
2022/05/14 07:46:51;;;;;;;16.98;4.55;;;16.20;99.90;;;;;;5029408;28;20091;-79
2022/05/14 07:49:18;;;;;;;25.38;5.53;;;16.10;99.90;;;;;;5063215;28;20441;-79
2022/05/14 07:51:43;;;;;;;17.65;4.60;;;16.00;99.90;;;;;;5042678;28;20413;-79
2022/05/14 07:54:10;;;;;;;22.40;4.50;;;15.90;99.90;;;;;;5029636;28;20045;-79
2022/05/14 07:56:38;;;;;;;18.65;4.63;;;15.90;99.90;;;;;;5052983;28;20033;-78
2022/05/14 07:59:03;;;;;;;25.08;4.60;;;16.00;99.90;;;;;;5045259;28;20059;-79
2022/05/14 08:01:29;;;;;;;25.80;5.15;;;16.20;99.90;;;;;;5045456;28;20505;-78
2022/05/14 08:03:54;;;;;;;18.45;5.10;;;16.50;99.90;;;;;;5046369;28;20029;-78
2022/05/14 08:06:22;;;;;;;19.55;4.90;;;16.50;99.90;;;;;;5046359;28;20045;-79
2022/05/14 08:08:48;;;;;;;21.58;5.20;;;16.70;99.90;;;;;;5048314;28;20116;-77
2022/05/14 08:11:13;;;;;;;20.73;4.97;;;17.00;99.90;;;;;;5035086;28;20546;-78
2022/05/14 08:13:40;;;;;;;22.85;4.85;;;17.10;99.90;;;;;;5049659;28;20037;-79
2022/05/14 08:16:06;;;;;;;14.02;4.30;;;17.20;99.90;;;;;;5051110;28;20040;-79
2022/05/14 08:18:32;;;;;;;23.08;5.45;;;17.30;99.90;;;;;;5049130;28;20033;-79
2022/05/14 08:24:29;;;;;;;24.02;4.63;;;17.00;99.90;;;;;;5045929;28;20041;-80
2022/05/14 08:26:27;;;;;;;18.45;5.05;;;16.60;99.90;;;;;;5045296;28;20734;-79
2022/05/14 08:28:52;;;;;;;26.83;5.22;;;16.90;99.90;;;;;;5064262;28;20033;-80
2022/05/14 08:31:18;;;;;;;21.02;5.30;;;17.10;99.90;;;;;;5045670;28;20032;-80
2022/05/14 08:33:43;;;;;;;23.35;4.85;;;17.20;99.90;;;;;;5031116;28;20032;-81
2022/05/14 08:36:09;;;;;;;21.98;5.28;;;17.30;99.90;;;;;;5046981;28;20348;-78
2022/05/14 08:38:36;;;;;;;18.52;4.20;;;17.20;99.90;;;;;;5045626;28;20133;-79
2022/05/14 08:41:03;;;;;;;21.85;5.28;;;17.30;99.90;;;;;;5031569;28;20037;-79
2022/05/14 08:43:49;;;;;;;16.05;4.10;;;17.50;99.90;;;;;;5034712;28;20166;-79
2022/05/14 08:46:18;;;;;;;18.20;4.50;;;17.80;99.90;;;;;;5051205;28;20032;-80
2022/05/14 08:48:49;;;;;;;18.70;4.65;;;18.10;99.90;;;;;;5048756;28;20075;-81
2022/05/14 08:51:21;;;;;;;17.45;4.40;;;18.20;99.90;;;;;;5043694;28;20151;-80
2022/05/14 08:53:48;;;;;;;21.17;4.82;;;18.50;99.90;;;;;;5063413;28;20107;-80
2022/05/14 08:56:20;;;;;;;24.50;4.45;;;18.60;99.90;;;;;;5046566;28;20033;-81
2022/05/14 08:59:13;;;;;;;21.42;4.18;;;18.70;99.90;;;;;;5043215;28;20576;-80
2022/05/14 09:01:43;;;;;;;18.50;4.22;;;18.80;99.90;;;;;;5046492;28;20041;-79
2022/05/14 09:04:10;;;;;;;20.80;4.45;;;18.40;99.90;;;;;;5030661;28;20044;-80
2022/05/14 09:06:37;;;;;;;18.95;4.00;;;18.10;99.90;;;;;;5047070;28;20502;-78
2022/05/14 09:09:03;;;;;;;17.10;4.43;;;17.90;99.90;;;;;;5048396;28;20047;-79
2022/05/14 09:11:52;;;;;;;18.10;4.35;;;17.80;99.90;;;;;;5050025;28;20041;-80
2022/05/14 09:14:30;;;;;;;23.38;4.65;;;18.10;99.90;;;;;;5013368;28;20037;-80
2022/05/14 09:17:16;;;;;;;15.38;4.35;;;18.40;99.90;;;;;;5029265;28;20060;-80
2022/05/14 09:19:43;;;;;;;16.20;4.50;;;18.60;99.90;;;;;;5029089;28;20041;-81
2022/05/14 09:22:29;;;;;;;20.27;4.55;;;18.80;99.90;;;;;;5029389;28;20072;-83
2022/05/14 09:25:20;;;;;;;16.40;4.47;;;18.70;99.90;;;;;;5016096;28;20049;-80
2022/05/14 09:27:52;;;;;;;19.75;4.85;;;18.50;99.90;;;;;;5047074;28;20037;-80
2022/05/14 09:30:32;;;;;;;15.90;4.10;;;18.30;99.90;;;;;;5050099;28;20071;-79
2022/05/14 09:32:58;;;;;;;17.02;4.30;;;18.00;99.90;;;;;;5047055;28;20417;-81
2022/05/14 09:35:30;;;;;;;19.67;4.78;;;18.10;99.90;;;;;;5050934;28;20036;-81
2022/05/14 09:38:08;;;;;;;23.30;4.97;;;18.40;99.90;;;;;;5036092;28;20079;-82
2022/05/14 09:40:34;;;;;;;18.00;4.85;;;18.70;99.90;;;;;;5052633;28;20041;-81
2022/05/14 09:43:10;;;;;;;15.43;4.35;;;18.90;99.90;;;;;;5050715;28;20052;-81
2022/05/14 09:45:39;;;;;;;20.98;4.70;;;18.60;99.90;;;;;;5031475;28;20037;-82
2022/05/14 09:48:22;;;;;;;20.85;4.25;;;18.50;99.90;;;;;;5049635;28;20111;-82
2022/05/14 09:50:55;;;;;;;21.65;4.35;;;18.50;99.90;;;;;;5034855;28;20037;-80
2022/05/14 09:53:30;;;;;;;17.77;4.13;;;18.40;99.90;;;;;;5051170;28;20120;-81
2022/05/14 09:56:33;;;;;;;18.92;4.70;;;18.40;99.90;;;;;;5033604;28;20068;-83
2022/05/14 09:59:25;;;;;;;21.00;4.60;;;18.50;99.90;;;;;;5044634;28;20072;-81
2022/05/14 10:02:10;;;;;;;17.73;3.90;;;18.70;99.90;;;;;;5024667;28;20049;-81
2022/05/14 10:05:15;;;;;;;17.00;4.45;;;19.00;99.90;;;;;;5051374;28;20549;-82
2022/05/14 10:07:53;;;;;;;21.88;4.68;;;19.20;99.90;;;;;;5068421;28;20047;-82
2022/05/14 10:10:41;;;;;;;20.30;5.28;;;19.40;99.90;;;;;;5052128;28;20065;-81
2022/05/14 10:13:15;;;;;;;19.20;4.32;;;19.60;99.90;;;;;;5053309;28;20044;-82
2022/05/14 10:15:57;;;;;;;20.23;4.57;;;19.70;99.90;;;;;;5054686;28;20048;-84
2022/05/14 10:18:55;;;;;;;16.35;4.70;;;19.70;99.90;;;;;;5054827;28;20048;-77
2022/05/14 10:21:57;;;;;;;18.73;4.32;;;19.60;99.90;;;;;;5034314;28;20356;-81
2022/05/14 10:28:21;;;;;;;23.92;4.82;;;20.20;99.90;;;;;;5019541;28;20072;-82
2022/05/14 10:31:07;;;;;;;18.25;4.60;;;20.10;99.90;;;;;;5046103;28;20094;-83
2022/05/14 10:33:33;;;;;;;18.48;4.50;;;19.90;99.90;;;;;;5052435;28;20041;-80
2022/05/14 10:36:33;;;;;;;17.92;4.40;;;19.60;99.90;;;;;;5053472;28;20032;-82
2022/05/14 10:39:08;;;;;;;21.17;4.55;;;19.40;99.90;;;;;;5034455;28;20596;-83
2022/05/14 10:41:37;;;;;;;20.85;4.88;;;19.40;99.90;;;;;;5043943;28;20041;-83
2022/05/14 10:44:09;;;;;;;19.15;4.70;;;19.70;99.90;;;;;;5032986;28;20423;-82
2022/05/14 10:46:36;;;;;;;18.08;4.78;;;19.60;99.90;;;;;;5034080;28;20121;-83
2022/05/14 10:49:18;;;;;;;18.52;4.95;;;19.40;99.90;;;;;;5034671;28;20076;-84
2022/05/14 10:51:47;;;;;;;19.02;4.75;;;19.30;99.90;;;;;;5034341;28;20496;-83
2022/05/14 10:54:18;;;;;;;19.00;4.50;;;19.20;99.90;;;;;;5034940;28;20049;-82
2022/05/14 10:57:00;;;;;;;23.85;5.20;;;18.90;99.90;;;;;;5034604;28;20216;-83
2022/05/14 10:59:41;;;;;;;19.58;4.82;;;18.80;99.90;;;;;;5034157;28;20045;-83
2022/05/14 11:02:28;;;;;;;21.08;4.57;;;18.60;99.90;;;;;;5035221;28;20053;-81
2022/05/14 11:04:54;;;;;;;23.30;4.90;;;18.40;99.90;;;;;;5033387;28;20037;-81
2022/05/14 11:07:33;;;;;;;19.38;4.93;;;18.60;99.90;;;;;;5034493;28;20045;-83
2022/05/14 11:10:17;;;;;;;16.27;4.20;;;19.10;99.90;;;;;;5017474;28;20104;-84
2022/05/14 11:12:44;;;;;;;19.33;4.80;;;19.60;99.90;;;;;;5033718;28;20099;-83
2022/05/14 11:15:23;;;;;;;18.48;4.78;;;19.80;99.90;;;;;;5016777;28;20124;-81
2022/05/14 11:18:00;;;;;;;18.90;4.05;;;20.20;99.90;;;;;;5032986;28;20081;-85
2022/05/14 11:20:26;;;;;;;19.85;4.70;;;20.30;99.90;;;;;;5051252;28;20052;-82
2022/05/14 11:23:10;;;;;;;15.57;4.57;;;20.30;99.90;;;;;;5049273;28;20078;-83
2022/05/14 11:25:36;;;;;;;18.60;4.88;;;20.40;99.50;;;;;;5050517;28;20033;-84
2022/05/14 11:28:11;;;;;;;18.50;4.43;;;20.70;99.90;;;;;;5051671;28;20041;-85
2022/05/14 11:30:49;;;;;;;19.17;4.65;;;21.30;99.90;;;;;;5050241;28;20037;-85
2022/05/14 11:33:25;;;;;;;18.15;4.57;;;21.60;99.80;;;;;;5051930;28;20033;-86
2022/05/14 11:36:00;;;;;;;15.52;4.85;;;21.60;99.50;;;;;;5052066;28;20043;-84
2022/05/14 11:38:26;;;;;;;19.63;4.82;;;21.20;97.90;;;;;;5053105;28;20072;-84
2022/05/14 11:41:08;;;;;;;20.35;5.35;;;21.00;98.20;;;;;;5035400;28;20110;-84
2022/05/14 11:43:34;;;;;;;21.40;4.72;;;20.60;98.70;;;;;;5052438;28;20045;-87
2022/05/14 11:46:09;;;;;;;19.38;5.18;;;20.10;99.40;;;;;;5051158;28;20041;-83
2022/05/14 11:48:39;;;;;;;19.75;4.95;;;20.00;99.10;;;;;;5052720;28;20073;-82
2022/05/14 11:51:46;;;;;;;17.35;3.97;;;20.20;99.10;;;;;;5048423;28;20068;-84
2022/05/14 11:54:30;;;;;;;18.35;4.50;;;20.10;99.30;;;;;;5026026;28;20087;-84
2022/05/14 11:57:08;;;;;;;20.17;4.55;;;19.80;98.80;;;;;;5034450;28;20090;-84
2022/05/14 12:00:01;;;;;;;23.55;4.97;;;20.10;99.90;;;;;;5053072;28;20056;-81
2022/05/14 12:02:44;;;;;;;16.33;4.55;;;20.10;99.10;;;;;;5051861;28;20113;-84
2022/05/14 12:05:36;;;;;;;21.10;4.53;;;20.10;99.40;;;;;;5042880;28;20040;-83
2022/05/14 12:08:29;;;;;;;22.98;4.35;;;20.20;99.00;;;;;;5030039;28;20107;-84
2022/05/14 12:11:29;;;;;;;20.73;4.47;;;20.30;98.20;;;;;;5032467;28;20074;-83
2022/05/14 12:14:04;;;;;;;17.80;4.72;;;20.40;97.30;;;;;;5032094;28;20037;-84
2022/05/14 12:16:33;;;;;;;17.35;4.20;;;20.40;97.90;;;;;;5036706;28;20051;-84
2022/05/14 12:19:03;;;;;;;17.55;4.28;;;21.10;98.40;;;;;;5046532;28;20495;-83
2022/05/14 12:21:29;;;;;;;16.65;4.68;;;21.50;96.80;;;;;;5044130;28;20045;-86
2022/05/14 12:23:55;;;;;;;18.80;4.55;;;21.60;96.60;;;;;;5028521;28;20048;-84
2022/05/14 12:26:27;;;;;;;18.27;4.90;;;21.90;96.50;;;;;;5050015;28;20078;-83
2022/05/14 12:29:11;;;;;;;20.48;5.07;;;22.30;94.80;;;;;;5046815;28;20042;-86
2022/05/14 12:34:31;;;;;;;;;;;22.40;95.40;;;;;;5031480;28;20050;-84
2022/05/14 12:36:58;;;;;;;17.88;4.50;;;21.90;94.40;;;;;;5024245;28;19924;-84
2022/05/14 12:39:27;;;;;;;15.23;4.43;;;21.60;94.70;;;;;;5051348;28;20077;-82
2022/05/14 12:42:00;;;;;;;19.38;4.63;;;21.60;94.50;;;;;;5035240;28;20383;-84
2022/05/14 12:44:28;;;;;;;21.23;4.80;;;21.50;95.60;;;;;;5048765;28;20407;-83
2022/05/14 12:46:56;;;;;;;20.00;4.82;;;21.30;94.10;;;;;;5033197;28;20032;-84
2022/05/14 12:49:41;;;;;;;18.92;4.95;;;21.10;95.30;;;;;;5048826;28;20033;-83
2022/05/14 12:52:15;;;;;;;20.23;4.30;;;20.90;95.60;;;;;;5066062;28;20076;-83
2022/05/14 12:55:01;;;;;;;21.02;4.72;;;20.70;96.10;;;;;;5048923;28;20071;-81
2022/05/14 12:57:30;;;;;;;19.90;4.63;;;20.40;95.60;;;;;;5048777;28;20044;-83
2022/05/14 12:59:57;;;;;;;18.52;4.60;;;20.60;95.90;;;;;;5050549;28;20049;-86
2022/05/14 13:02:25;;;;;;;20.80;5.35;;;20.60;96.80;;;;;;5051074;28;20041;-84
2022/05/14 13:04:57;;;;;;;19.92;5.40;;;20.60;97.50;;;;;;5050870;28;20037;-84
2022/05/14 13:07:23;;;;;;;21.85;4.93;;;20.70;97.20;;;;;;5051143;28;20048;-82
2022/05/14 13:09:51;;;;;;;20.77;4.82;;;20.60;95.80;;;;;;5034863;28;20413;-83
2022/05/14 13:12:21;;;;;;;20.33;4.93;;;20.40;95.80;;;;;;5051497;28;20052;-84
2022/05/14 13:14:52;;;;;;;15.75;4.40;;;20.20;96.00;;;;;;5050626;28;20048;-84
2022/05/14 13:17:18;;;;;;;16.20;4.28;;;20.10;96.20;;;;;;5034459;28;20040;-82